Time;durP1;ratioP1;P1;durP2;ratioP2;P2;SDS_P1;SDS_P2;PMS_P1;PMS_P2;Temp;Humidity;BMP_temperature;BMP_pressure;BME280_temperature;BME280_humidity;BME280_pressure;Samples;Min_cycle;Max_cycle;Signal;HPM_P1;HPM_P2
2023/01/04 00:01:51;;;;;;;;;;;;;;;9.70;54.16;99689.00;5017536;28;20019;-72
2023/01/04 00:04:16;;;;;;;;;;;;;;;9.67;54.11;99689.19;5000581;28;20016;-72
2023/01/04 00:06:42;;;;;;;;;;;;;;;9.63;53.83;99682.44;5017892;28;20411;-73
2023/01/04 00:09:07;;;;;;;;;;;;;;;9.59;53.92;99687.84;5000918;28;19921;-72
2023/01/04 00:11:32;;;;;;;;;;;;;;;9.56;53.82;99688.00;5017205;28;19917;-72
2023/01/04 00:13:58;;;;;;;;;;;;;;;9.54;53.65;99687.28;5000701;28;19928;-72
2023/01/04 00:16:23;;;;;;;;;;;;;;;9.50;53.84;99677.09;5000710;28;19925;-72
2023/01/04 00:18:49;;;;;;;;;;;;;;;9.47;53.72;99685.97;5016942;28;20008;-72
2023/01/04 00:21:15;;;;;;;;;;;;;;;9.44;53.85;99678.31;5000706;28;19918;-72
2023/01/04 00:23:41;;;;;;;;;;;;;;;9.42;53.92;99677.53;5016955;28;20343;-72
2023/01/04 00:26:10;;;;;;;;;;;;;;;9.41;53.50;99681.09;5000592;28;19917;-71
2023/01/04 00:28:35;;;;;;;;;;;;;;;9.38;53.48;99678.66;5000673;28;19920;-71
2023/01/04 00:31:02;;;;;;;;;;;;;;;9.36;53.39;99688.31;5017063;28;20303;-71
2023/01/04 00:33:27;;;;;;;;;;;;;;;9.35;53.50;99691.84;5016732;28;19936;-71
2023/01/04 00:35:52;;;;;;;;;;;;;;;9.31;53.41;99685.13;5016997;28;20403;-71
2023/01/04 00:38:17;;;;;;;;;;;;;;;9.28;53.47;99686.13;5000284;28;20004;-71
2023/01/04 00:40:43;;;;;;;;;;;;;;;9.24;53.41;99685.47;5016746;28;19927;-71
2023/01/04 00:43:08;;;;;;;;;;;;;;;9.22;53.67;99696.91;4999927;28;20323;-71
2023/01/04 00:45:33;;;;;;;;;;;;;;;9.21;53.25;99693.44;5016695;28;19917;-71
2023/01/04 00:47:58;;;;;;;;;;;;;;;9.20;53.61;99693.53;5034423;28;19925;-72
2023/01/04 00:50:24;;;;;;;;;;;;;;;9.18;53.56;99698.00;5000037;28;20016;-71
2023/01/04 00:52:49;;;;;;;;;;;;;;;9.15;53.43;99698.16;5016279;28;20502;-71
2023/01/04 00:55:14;;;;;;;;;;;;;;;9.08;52.99;99696.81;5016491;28;19950;-71
2023/01/04 00:57:40;;;;;;;;;;;;;;;9.08;53.21;99702.88;5034068;28;19917;-71
2023/01/04 01:00:05;;;;;;;;;;;;;;;9.05;53.52;99703.03;5016222;28;20014;-71
2023/01/04 01:02:31;;;;;;;;;;;;;;;9.02;53.41;99701.44;5015828;28;19917;-71
2023/01/04 01:04:56;;;;;;;;;;;;;;;9.00;53.31;99703.28;5016105;28;20296;-71
2023/01/04 01:07:21;;;;;;;;;;;;;;;8.98;53.25;99699.94;5016214;28;19924;-71
2023/01/04 01:09:47;;;;;;;;;;;;;;;8.96;52.91;99709.56;5033922;28;19975;-71
2023/01/04 01:12:12;;;;;;;;;;;;;;;8.95;53.03;99712.25;4999728;28;20370;-72
2023/01/04 01:14:37;;;;;;;;;;;;;;;8.92;53.08;99709.81;4999351;28;20020;-71
2023/01/04 01:17:02;;;;;;;;;;;;;;;8.90;52.93;99703.88;5033544;28;19917;-71
2023/01/04 01:19:28;;;;;;;;;;;;;;;8.87;52.88;99708.31;5016010;28;19917;-72
2023/01/04 01:21:53;;;;;;;;;;;;;;;8.85;53.18;99704.09;5016267;28;20367;-72
2023/01/04 01:24:19;;;;;;;;;;;;;;;8.85;53.01;99707.53;5000359;28;20282;-72
2023/01/04 01:26:44;;;;;;;;;;;;;;;8.82;52.91;99705.13;4999592;28;19917;-72
2023/01/04 01:29:09;;;;;;;;;;;;;;;8.80;52.94;99700.91;5015831;28;19979;-72
2023/01/04 01:31:34;;;;;;;;;;;;;;;8.78;52.74;99700.16;5033321;28;19936;-72
2023/01/04 01:34:00;;;;;;;;;;;;;;;8.77;52.76;99704.50;5015670;28;19975;-72
2023/01/04 01:36:25;;;;;;;;;;;;;;;8.75;53.09;99705.53;5015574;28;19917;-72
2023/01/04 01:38:50;;;;;;;;;;;;;;;8.74;52.83;99714.25;5033472;28;19933;-72
2023/01/04 01:41:17;;;;;;;;;;;;;;;8.69;52.53;99707.53;5015710;28;20296;-71
2023/01/04 01:43:46;;;;;;;;;;;;;;;8.69;52.88;99704.91;5033474;28;20007;-72
2023/01/04 01:46:12;;;;;;;;;;;;;;;8.68;52.98;99699.78;5015850;28;19945;-72
2023/01/04 01:48:37;;;;;;;;;;;;;;;8.67;52.89;99703.34;4999275;28;19968;-71
2023/01/04 01:51:02;;;;;;;;;;;;;;;8.66;52.98;99699.88;4999457;28;20377;-71
2023/01/04 01:53:28;;;;;;;;;;;;;;;8.64;52.52;99696.53;4999961;28;19927;-71
2023/01/04 01:55:54;;;;;;;;;;;;;;;8.61;52.70;99694.06;5015543;28;19918;-72
2023/01/04 01:58:24;;;;;;;;;;;;;;;8.60;52.53;99697.63;4998952;28;20296;-71
2023/01/04 02:00:50;;;;;;;;;;;;;;;8.59;52.78;99692.50;5015549;28;19917;-72
2023/01/04 02:03:16;;;;;;;;;;;;;;;8.56;52.46;99690.06;4998749;28;19948;-72
2023/01/04 02:05:41;;;;;;;;;;;;;;;8.55;52.38;99685.75;4998997;28;19917;-72
2023/01/04 02:08:07;;;;;;;;;;;;;;;8.54;52.47;99690.13;5015597;28;19917;-72
2023/01/04 02:10:32;;;;;;;;;;;;;;;8.54;52.18;99686.66;5015436;28;20004;-72
2023/01/04 02:12:58;;;;;;;;;;;;;;;8.54;52.34;99686.66;4998856;28;19921;-72
2023/01/04 02:15:25;;;;;;;;;;;;;;;8.53;52.10;99691.03;5014396;28;19917;-73
2023/01/04 02:17:59;;;;;;;;;;;;;;;8.50;52.11;99694.63;5015472;28;20078;-72
2023/01/04 02:20:24;;;;;;;;;;;;;;;8.50;52.30;99696.41;4998847;28;19921;-72
2023/01/04 02:23:08;;;;;;;;;;;;;;;8.46;52.30;99703.53;5015112;28;19917;-72
2023/01/04 02:25:52;;;;;;;;;;;;;;;8.45;52.15;99703.63;5032775;28;20072;-71
2023/01/04 02:28:43;;;;;;;;;;;;;;;8.42;52.06;99699.38;5014811;28;19917;-72
2023/01/04 02:31:27;;;;;;;;;;;;;;;8.42;51.82;99695.94;4971975;28;20334;-71
2023/01/04 02:34:01;;;;;;;;;;;;;;;8.39;52.01;99696.94;4955718;28;19924;-71
2023/01/04 02:36:29;;;;;;;;;;;;;;;8.38;51.92;99697.00;4971800;28;19952;-72
2023/01/04 02:39:21;;;;;;;;;;;;;;;8.35;51.81;99703.22;4955176;28;20009;-72
2023/01/04 02:41:51;;;;;;;;;;;;;;;8.33;51.76;99702.44;4957221;28;20338;-71
2023/01/04 02:47:16;;;;;;;;;;;;;;;8.29;51.74;99704.38;4971659;28;20008;-72
2023/01/04 02:52:25;;;;;;;;;;;;;;;8.25;51.54;99696.81;4958129;28;19925;-72
2023/01/04 02:54:51;;;;;;;;;;;;;;;8.24;51.64;99695.97;4939565;28;19918;-72
2023/01/04 02:57:23;;;;;;;;;;;;;;;8.23;51.81;99694.28;4939266;28;20390;-72
2023/01/04 03:00:06;;;;;;;;;;;;;;;8.21;51.42;99695.28;4971389;28;19944;-72
2023/01/04 03:08:49;;;;;;;;;;;;;;;8.16;51.29;99705.94;5016026;28;19924;-71
2023/01/04 03:14:24;;;;;;;;;;;;;;;8.09;51.76;99702.78;5017433;28;20319;-72
2023/01/04 03:16:50;;;;;;;;;;;;;;;8.06;51.58;99707.31;5011256;28;19917;-72
2023/01/04 03:19:50;;;;;;;;;;;;;;;8.05;51.41;99705.59;5014382;28;19917;-71
2023/01/04 03:22:01;;;;;;;;;;;;;;;8.01;51.65;99706.69;5017388;28;19917;-71
2023/01/04 03:35:43;;;;;;;;;;;;;;;7.92;51.53;99700.19;5036018;28;20419;-71
2023/01/04 03:49:44;;;;;;;;;;;;;;;7.88;51.98;99702.09;5020750;28;19960;-72
2023/01/04 03:52:09;;;;;;;;;;;;;;;7.89;51.98;99700.34;5001553;28;19974;-71
2023/01/04 03:54:38;;;;;;;;;;;;;;;7.89;52.57;99698.59;5017759;28;19920;-72
2023/01/04 03:57:03;;;;;;;;;;;;;;;7.91;52.38;99701.13;5001440;28;19924;-72
2023/01/04 03:59:29;;;;;;;;;;;;;;;7.91;52.41;99704.56;5001133;28;19917;-71
2023/01/04 04:01:56;;;;;;;;;;;;;;;7.91;52.28;99701.94;5017517;28;19923;-73
2023/01/04 04:09:49;;;;;;;;;;;;;;;7.92;52.63;99726.19;5020569;28;19939;-72
2023/01/04 04:12:14;;;;;;;;;;;;;;;7.91;52.22;99716.72;5035151;28;20377;-72
2023/01/04 04:14:39;;;;;;;;;;;;;;;7.90;52.30;99725.44;5001181;28;19967;-72
2023/01/04 04:17:04;;;;;;;;;;;;;;;7.88;52.31;99729.88;5017247;28;19917;-72
2023/01/04 04:19:30;;;;;;;;;;;;;;;7.88;52.40;99740.28;5017319;28;19917;-72
2023/01/04 04:21:55;;;;;;;;;;;;;;;7.88;52.18;99732.47;5017531;28;19917;-73
2023/01/04 04:24:24;;;;;;;;;;;;;;;7.87;52.32;99733.38;5017639;28;19917;-72
2023/01/04 04:26:50;;;;;;;;;;;;;;;7.85;52.33;99730.03;5016845;28;20315;-71
2023/01/04 04:29:15;;;;;;;;;;;;;;;7.83;52.20;99730.09;5017638;28;19917;-72
2023/01/04 04:31:40;;;;;;;;;;;;;;;7.81;52.38;99729.31;5017060;28;19968;-72
2023/01/04 04:34:06;;;;;;;;;;;;;;;7.81;52.14;99731.06;5000605;28;19924;-70
2023/01/04 04:36:31;;;;;;;;;;;;;;;7.87;61.42;99735.97;5016934;28;19921;-70
2023/01/04 04:38:56;;;;;;;;;;;;;;;8.36;71.44;99738.72;5016410;28;20411;-71
2023/01/04 04:41:37;;;;;;;;;;;;;;;8.51;68.98;99744.94;5017356;28;19917;-71
2023/01/04 04:44:02;;;;;;;;;;;;;;;8.40;62.11;99737.66;5019641;28;20004;-71
2023/01/04 04:46:28;;;;;;;;;;;;;;;8.41;64.36;99735.88;5017087;28;19968;-71
2023/01/04 04:48:53;;;;;;;;;;;;;;;8.36;60.89;99741.31;5016771;28;20381;-74
2023/01/04 04:51:18;;;;;;;;;;;;;;;8.32;61.81;99742.41;5014425;28;19921;-70
2023/01/04 04:53:44;;;;;;;;;;;;;;;8.30;60.60;99746.81;5036295;28;19917;-70
2023/01/04 04:56:09;;;;;;;;;;;;;;;8.25;60.03;99739.25;5036320;28;19967;-70
2023/01/04 04:58:35;;;;;;;;;;;;;;;8.30;66.55;99744.22;5036406;28;19967;-71
2023/01/04 05:01:00;;;;;;;;;;;;;;;8.58;68.81;99748.06;5020499;28;19923;-70
2023/01/04 05:03:25;;;;;;;;;;;;;;;8.49;63.35;99759.78;5036339;28;20027;-69
2023/01/04 05:05:50;;;;;;;;;;;;;;;8.43;62.18;99754.84;5036350;28;19960;-69
2023/01/04 05:08:16;;;;;;;;;;;;;;;8.36;60.98;99766.50;5036360;28;19917;-70
2023/01/04 05:10:41;;;;;;;;;;;;;;;8.30;60.40;99771.09;5054002;28;20389;-67
2023/01/04 05:13:09;;;;;;;;;;;;;;;8.26;59.99;99772.16;5054095;28;19916;-68
2023/01/04 05:15:37;;;;;;;;;;;;;;;8.21;59.32;99781.13;5019568;28;20076;-68
2023/01/04 05:18:03;;;;;;;;;;;;;;;8.18;58.69;99778.69;5053762;28;20062;-69
2023/01/04 05:20:28;;;;;;;;;;;;;;;8.12;58.23;99785.84;5035974;28;20011;-71
2023/01/04 05:22:54;;;;;;;;;;;;;;;8.08;58.05;99786.94;5035462;28;19924;-69
2023/01/04 05:25:22;;;;;;;;;;;;;;;8.06;57.71;99793.13;5018921;28;19936;-69
2023/01/04 05:27:47;;;;;;;;;;;;;;;8.02;57.68;99784.63;5053704;28;19973;-69
2023/01/04 05:32:57;;;;;;;;;;;;;;;7.95;57.48;99783.22;5038828;28;19970;-70
2023/01/04 05:35:22;;;;;;;;;;;;;;;8.19;69.66;99795.94;5018774;28;19917;-71
2023/01/04 05:37:48;;;;;;;;;;;;;;;8.19;62.91;99802.03;5053784;28;19928;-69
2023/01/04 05:40:13;;;;;;;;;;;;;;;8.15;60.99;99798.69;5053513;28;20077;-69
2023/01/04 05:42:38;;;;;;;;;;;;;;;8.11;59.68;99799.78;5053385;28;19917;-69
2023/01/04 05:45:04;;;;;;;;;;;;;;;8.07;59.37;99798.25;5035574;28;19956;-69
2023/01/04 05:47:29;;;;;;;;;;;;;;;8.03;58.52;99794.09;5053208;28;19923;-69
2023/01/04 05:49:55;;;;;;;;;;;;;;;7.98;58.08;99801.28;5034864;28;19916;-69
2023/01/04 05:52:20;;;;;;;;;;;;;;;7.96;57.96;99803.13;5018589;28;20015;-69
2023/01/04 05:54:45;;;;;;;;;;;;;;;7.95;57.65;99801.44;5035939;28;20016;-69
2023/01/04 05:57:11;;;;;;;;;;;;;;;7.96;56.93;99803.13;5035719;28;20356;-69
2023/01/04 05:59:36;;;;;;;;;;;;;;;8.05;56.48;99799.22;5035255;28;19959;-69
2023/01/04 06:02:01;;;;;;;;;;;;;;;8.20;56.66;99801.06;5018608;28;20020;-69
2023/01/04 06:04:26;;;;;;;;;;;;;;;8.35;55.86;99802.09;5053259;28;19940;-69
2023/01/04 06:06:52;;;;;;;;;;;;;;;8.55;55.46;99798.50;5034794;28;20391;-70
2023/01/04 06:09:17;;;;;;;;;;;;;;;8.80;55.07;99792.88;5018691;28;19974;-69
2023/01/04 06:11:42;;;;;;;;;;;;;;;9.07;54.86;99797.56;5034732;28;19920;-69
2023/01/04 06:14:08;;;;;;;;;;;;;;;9.39;54.35;99794.97;5035264;28;19928;-68
2023/01/04 06:16:33;;;;;;;;;;;;;;;9.77;53.61;99799.84;5035116;28;20299;-69
2023/01/04 06:18:58;;;;;;;;;;;;;;;10.27;52.96;99797.91;5035031;28;20083;-70
2023/01/04 06:21:26;;;;;;;;;;;;;;;10.83;51.84;99796.34;5052599;28;19974;-70
2023/01/04 06:23:52;;;;;;;;;;;;;;;11.41;50.48;99796.28;5035401;28;19913;-70
2023/01/04 06:26:17;;;;;;;;;;;;;;;12.03;49.30;99803.69;5034796;28;19924;-71
2023/01/04 06:28:42;;;;;;;;;;;;;;;12.62;47.93;99805.91;5035358;28;19962;-69
2023/01/04 06:31:08;;;;;;;;;;;;;;;13.37;46.13;99809.53;5057363;28;19979;-69
2023/01/04 06:33:33;;;;;;;;;;;;;;;14.26;44.31;99803.06;5072728;28;19912;-69
2023/01/04 06:35:58;;;;;;;;;;;;;;;14.93;42.25;99809.44;5072706;28;19921;-69
2023/01/04 06:38:24;;;;;;;;;;;;;;;15.54;40.97;99808.19;5038171;28;19927;-70
2023/01/04 06:40:49;;;;;;;;;;;;;;;16.02;39.87;99807.84;5048891;28;20322;-69
2023/01/04 06:43:14;;;;;;;;;;;;;;;16.39;39.24;99802.16;5034871;28;19917;-71
2023/01/04 06:45:40;;;;;;;;;;;;;;;16.57;38.96;99812.09;5052849;28;19968;-70
2023/01/04 06:48:05;;;;;;;;;;;;;;;16.60;38.93;99815.34;5052532;28;20380;-69
2023/01/04 06:50:31;;;;;;;;;;;;;;;16.75;38.70;99812.38;5034999;28;19917;-71
2023/01/04 06:52:56;;;;;;;;;;;;;;;16.90;38.73;99810.25;5034907;28;20009;-70
2023/01/04 06:55:21;;;;;;;;;;;;;;;17.10;38.50;99813.81;5052303;28;20370;-71
2023/01/04 06:57:47;;;;;;;;;;;;;;;17.33;38.20;99809.16;5034611;28;19917;-72
2023/01/04 07:00:12;;;;;;;;;;;;;;;17.60;37.86;99812.97;5035118;28;19924;-69
2023/01/04 07:02:37;;;;;;;;;;;;;;;17.93;39.52;99814.44;5056842;28;19921;-71
2023/01/04 07:05:03;;;;;;;;;;;;;;;18.05;39.20;99815.16;5060325;28;19916;-70
2023/01/04 07:07:28;;;;;;;;;;;;;;;18.35;38.35;99826.56;5038554;28;20387;-70
2023/01/04 07:09:53;;;;;;;;;;;;;;;18.61;37.43;99818.84;5038386;28;20067;-70
2023/01/04 07:12:19;;;;;;;;;;;;;;;18.85;36.66;99826.34;5038081;28;19917;-70
2023/01/04 07:14:44;;;;;;;;;;;;;;;19.00;36.13;99820.59;5037982;28;19967;-72
2023/01/04 07:17:09;;;;;;;;;;;;;;;19.21;35.55;99828.31;5037819;28;19925;-70
2023/01/04 07:19:34;;;;;;;;;;;;;;;19.44;35.07;99831.41;5038069;28;19917;-70
2023/01/04 07:22:00;;;;;;;;;;;;;;;19.62;34.36;99831.44;5038474;28;19917;-70
2023/01/04 07:24:26;;;;;;;;;;;;;;;19.92;34.04;99832.94;5022398;28;20303;-69
2023/01/04 07:26:51;;;;;;;;;;;;;;;20.19;33.16;99826.75;5037579;28;19917;-70
2023/01/04 07:29:16;;;;;;;;;;;;;;;20.55;36.97;99831.16;5056108;28;19923;-71
2023/01/04 07:31:42;;;;;;;;;;;;;;;20.91;39.66;99831.09;5056065;28;19963;-71
2023/01/04 07:34:07;;;;;;;;;;;;;;;21.19;39.80;99834.38;5038206;28;19917;-71
2023/01/04 07:36:33;;;;;;;;;;;;;;;21.46;37.86;99827.19;5055629;28;19916;-70
2023/01/04 07:38:58;;;;;;;;;;;;;;;21.75;38.49;99831.28;5055695;28;19974;-69
2023/01/04 07:41:24;;;;;;;;;;;;;;;21.90;37.18;99821.69;5037877;28;19917;-70
2023/01/04 07:43:49;;;;;;;;;;;;;;;22.08;36.12;99821.53;5037996;28;19924;-71
2023/01/04 07:46:14;;;;;;;;;;;;;;;22.29;37.14;99830.84;5038253;28;19966;-69
2023/01/04 07:48:40;;;;;;;;;;;;;;;22.45;36.58;99828.19;5021467;28;20295;-70
2023/01/04 07:51:05;;;;;;;;;;;;;;;22.65;34.25;99827.88;5021276;28;19932;-70
2023/01/04 07:53:33;;;;;;;;;;;;;;;22.73;33.15;99828.66;5037714;28;19931;-70
2023/01/04 07:55:58;;;;;;;;;;;;;;;22.72;31.18;99829.69;5037615;28;19978;-70
2023/01/04 07:58:24;;;;;;;;;;;;;;;22.73;30.48;99841.16;5055557;28;19917;-70
2023/01/04 08:00:50;;;;;;;;;;;;;;;22.68;27.69;99840.84;5055810;28;19924;-71
2023/01/04 08:03:15;;;;;;;;;;;;;;;22.68;28.09;99854.97;5037832;28;19917;-71
2023/01/04 08:05:41;;;;;;;;;;;;;;;22.58;28.30;99855.16;5055132;28;20028;-71
2023/01/04 08:08:06;;;;;;;;;;;;;;;22.45;27.48;99851.31;5036769;28;19974;-71
2023/01/04 08:10:32;;;;;;;;;;;;;;;22.46;27.44;99855.66;5021020;28;20354;-70
2023/01/04 08:12:58;;;;;;;;;;;;;;;22.47;27.26;99849.31;5035661;28;19917;-69
2023/01/04 08:15:23;;;;;;;;;;;;;;;22.49;30.68;99852.66;5021127;28;19917;-71
2023/01/04 08:17:48;;;;;;;;;;;;;;;22.40;28.07;99865.13;5055110;28;20308;-70
2023/01/04 08:20:14;;;;;;;;;;;;;;;22.42;27.28;99859.63;5054781;28;19921;-69
2023/01/04 08:22:39;;;;;;;;;;;;;;;22.47;27.08;99868.78;5055843;28;20015;-69
2023/01/04 08:25:05;;;;;;;;;;;;;;;22.53;26.83;99861.94;5037047;28;19999;-69
2023/01/04 08:27:31;;;;;;;;;;;;;;;22.64;26.40;99863.44;5040947;28;19979;-70
2023/01/04 08:29:57;;;;;;;;;;;;;;;22.72;26.42;99866.09;5065886;28;20387;-70
2023/01/04 08:32:22;;;;;;;;;;;;;;;22.77;26.18;99863.75;5056906;28;19917;-71
2023/01/04 08:34:47;;;;;;;;;;;;;;;22.85;25.92;99869.09;5056650;28;19920;-72
2023/01/04 08:37:13;;;;;;;;;;;;;;;22.93;25.88;99857.59;5074653;28;19947;-70
2023/01/04 08:39:39;;;;;;;;;;;;;;;22.97;25.84;99858.91;5055957;28;19950;-69
2023/01/04 08:42:04;;;;;;;;;;;;;;;23.11;25.98;99854.75;5056854;28;19963;-71
2023/01/04 08:44:29;;;;;;;;;;;;;;;23.24;27.50;99855.00;5056723;28;20385;-70
2023/01/04 08:46:54;;;;;;;;;;;;;;;23.34;26.31;99857.50;5074750;28;20346;-70
2023/01/04 08:49:20;;;;;;;;;;;;;;;23.45;26.02;99858.94;5039595;28;19920;-71
2023/01/04 08:51:45;;;;;;;;;;;;;;;23.52;25.38;99867.91;5056522;28;20410;-71
2023/01/04 08:54:11;;;;;;;;;;;;;;;23.54;27.26;99857.06;5056886;28;19916;-73
2023/01/04 08:56:36;;;;;;;;;;;;;;;23.51;25.25;99865.41;5074303;28;19916;-71
2023/01/04 08:59:01;;;;;;;;;;;;;;;23.61;25.08;99864.19;5056390;28;19966;-71
2023/01/04 09:01:27;;;;;;;;;;;;;;;23.76;24.85;99861.59;5039624;28;19963;-72
2023/01/04 09:03:54;;;;;;;;;;;;;;;23.91;24.88;99860.88;5055640;28;19978;-72
2023/01/04 09:06:19;;;;;;;;;;;;;;;24.08;24.55;99849.09;5050024;28;20312;-70
2023/01/04 09:08:45;;;;;;;;;;;;;;;24.24;24.41;99850.00;5055936;28;19916;-69
2023/01/04 09:11:11;;;;;;;;;;;;;;;24.38;24.19;99844.72;5062134;28;19917;-70
2023/01/04 09:13:36;;;;;;;;;;;;;;;24.56;24.11;99844.41;5035936;28;19952;-68
2023/01/04 09:16:11;;;;;;;;;;;;;;;24.76;23.87;99843.06;5053909;28;20418;-68
2023/01/04 09:18:36;;;;;;;;;;;;;;;24.80;23.87;99837.19;5053983;28;20334;-67
2023/01/04 09:21:05;;;;;;;;;;;;;;;24.90;23.53;99828.88;5034784;28;19917;-67
2023/01/04 09:23:32;;;;;;;;;;;;;;;24.97;23.54;99831.66;5051427;28;19982;-69
2023/01/04 09:25:58;;;;;;;;;;;;;;;25.02;23.15;99830.09;5053059;28;19921;-67
2023/01/04 09:28:24;;;;;;;;;;;;;;;25.06;23.12;99833.22;5036326;28;20468;-69
2023/01/04 09:30:49;;;;;;;;;;;;;;;24.99;23.55;99827.78;5053659;28;19916;-69
2023/01/04 09:33:14;;;;;;;;;;;;;;;24.99;23.50;99821.63;5053754;28;19921;-68
2023/01/04 09:35:39;;;;;;;;;;;;;;;25.01;23.71;99816.91;5053571;28;19916;-68
2023/01/04 09:38:05;;;;;;;;;;;;;;;25.07;23.61;99818.84;5019291;28;20004;-69
2023/01/04 09:40:31;;;;;;;;;;;;;;;25.30;23.38;99818.75;5019077;28;19928;-68
2023/01/04 09:42:56;;;;;;;;;;;;;;;25.74;22.92;99814.34;5036009;28;19917;-68
2023/01/04 09:45:23;;;;;;;;;;;;;;;26.14;22.06;99820.94;5053572;28;19924;-67
2023/01/04 09:47:48;;;;;;;;;;;;;;;27.05;21.07;99822.00;5035479;28;19974;-67
2023/01/04 09:50:32;;;;;;;;;;;;;;;27.98;20.15;99824.22;5053317;28;19920;-68
2023/01/04 09:53:17;;;;;;;;;;;;;;;29.06;18.87;99820.44;5053445;28;19916;-68
2023/01/04 09:55:44;;;;;;;;;;;;;;;29.88;18.26;99819.91;5019108;28;19917;-67
2023/01/04 09:58:09;;;;;;;;;;;;;;;30.62;17.20;99814.78;5019089;28;19924;-69
2023/01/04 10:00:36;;;;;;;;;;;;;;;30.84;16.98;99813.28;5053008;28;19917;-66
2023/01/04 10:03:21;;;;;;;;;;;;;;;31.31;16.63;99811.94;5019001;28;20383;-67
2023/01/04 10:05:47;;;;;;;;;;;;;;;31.76;16.31;99814.25;5035418;28;19917;-68
2023/01/04 10:08:16;;;;;;;;;;;;;;;32.14;15.92;99806.88;5035518;28;19924;-67
2023/01/04 10:11:07;;;;;;;;;;;;;;;31.88;15.89;99800.78;5053120;28;20443;-68
2023/01/04 10:13:39;;;;;;;;;;;;;;;32.50;15.49;99803.13;5015268;28;20234;-68
2023/01/04 10:16:17;;;;;;;;;;;;;;;32.32;15.63;99795.13;5035700;28;19924;-68
2023/01/04 10:18:52;;;;;;;;;;;;;;;32.15;15.60;99801.22;5052954;28;19917;-66
2023/01/04 10:21:27;;;;;;;;;;;;;;;32.00;15.50;99800.81;5035251;28;20320;-68
2023/01/04 10:23:52;;;;;;;;;;;;;;;31.32;16.50;99792.81;5052719;28;19920;-68
2023/01/04 10:26:25;;;;;;;;;;;;;;;30.92;16.88;99790.59;5052838;28;19931;-68
2023/01/04 10:29:02;;;;;;;;;;;;;;;30.20;17.13;99792.94;5035312;28;19916;-68
2023/01/04 10:31:36;;;;;;;;;;;;;;;29.47;17.85;99791.56;5052681;28;19967;-68
2023/01/04 10:34:40;;;;;;;;;;;;;;;28.82;18.73;99784.34;5035270;28;20002;-68
2023/01/04 10:37:12;;;;;;;;;;;;;;;28.22;19.64;99776.34;4952590;29;19918;-67
2023/01/04 10:39:38;;;;;;;;;;;;;;;27.75;20.06;99781.63;4920543;29;19938;-68
2023/01/04 10:42:09;;;;;;;;;;;;;;;27.32;20.85;99777.41;4936934;29;20359;-68
2023/01/04 10:44:40;;;;;;;;;;;;;;;26.96;21.08;99781.13;4952729;29;20061;-67
2023/01/04 10:47:07;;;;;;;;;;;;;;;26.60;21.50;99778.63;4920717;29;19919;-69
2023/01/04 10:49:32;;;;;;;;;;;;;;;26.34;22.08;99777.44;4952458;29;19918;-68
2023/01/04 10:51:59;;;;;;;;;;;;;;;26.12;22.38;99774.78;4952934;29;20073;-68
2023/01/04 10:54:32;;;;;;;;;;;;;;;25.93;22.67;99775.44;4936579;29;19974;-68
2023/01/04 10:56:59;;;;;;;;;;;;;;;25.76;22.70;99773.03;4936431;29;19918;-67
2023/01/04 10:59:34;;;;;;;;;;;;;;;25.50;23.09;99775.41;4936388;29;19944;-69
2023/01/04 11:02:02;;;;;;;;;;;;;;;25.24;23.68;99777.56;4952543;29;20386;-69
2023/01/04 11:04:35;;;;;;;;;;;;;;;25.01;23.92;99769.66;4952402;29;19925;-68
2023/01/04 11:07:07;;;;;;;;;;;;;;;24.87;24.23;99765.16;4968915;28;19921;-69
2023/01/04 11:09:34;;;;;;;;;;;;;;;24.65;24.35;99765.06;5052188;28;19967;-68
2023/01/04 11:11:59;;;;;;;;;;;;;;;24.50;24.69;99759.69;5034593;28;19991;-68
2023/01/04 11:14:24;;;;;;;;;;;;;;;24.31;25.12;99773.56;5034638;28;20380;-69
2023/01/04 11:16:50;;;;;;;;;;;;;;;24.16;25.22;99762.84;5039133;28;19959;-68
2023/01/04 11:19:15;;;;;;;;;;;;;;;23.80;28.29;99756.28;5030188;28;19920;-75
2023/01/04 11:22:19;;;;;;;;;;;;;;;23.34;29.94;99761.59;5054617;28;19970;-73
2023/01/04 11:24:46;;;;;;;;;;;;;;;23.03;29.78;99766.88;4972326;28;19962;-74
2023/01/04 11:27:15;;;;;;;;;;;;;;;22.76;31.45;99764.44;4963952;28;19922;-74
2023/01/04 11:29:45;;;;;;;;;;;;;;;22.49;31.64;99762.22;4939247;28;19949;-74
2023/01/04 11:32:30;;;;;;;;;;;;;;;22.31;31.85;99762.38;4955546;28;19962;-74
2023/01/04 11:34:56;;;;;;;;;;;;;;;;;;4955286;28;19924;-72
2023/01/04 11:37:25;;;;;;;;;;;;;;;21.71;32.38;99767.00;4971496;28;19918;-77
2023/01/04 11:39:51;;;;;;;;;;;;;;;21.53;32.70;99761.00;4970876;28;19926;-69
2023/01/04 11:42:19;;;;;;;;;;;;;;;21.31;31.67;99771.19;4955076;28;19969;-68
2023/01/04 11:44:45;;;;;;;;;;;;;;;21.02;32.10;99766.28;4955309;28;20371;-68
2023/01/04 11:47:18;;;;;;;;;;;;;;;20.78;31.82;99771.31;4956692;28;20025;-68
2023/01/04 11:49:43;;;;;;;;;;;;;;;20.55;32.00;99770.16;4974953;28;20031;-69
2023/01/04 11:52:26;;;;;;;;;;;;;;;20.31;32.26;99763.69;4958571;28;19935;-67
2023/01/04 11:54:51;;;;;;;;;;;;;;;19.93;32.77;99772.84;4977960;28;19942;-69
2023/01/04 11:57:17;;;;;;;;;;;;;;;19.77;33.05;99765.59;5055457;28;20392;-70
2023/01/04 11:59:42;;;;;;;;;;;;;;;19.47;33.65;99760.44;5043902;28;19924;-69
2023/01/04 12:02:17;;;;;;;;;;;;;;;19.21;34.00;99770.06;5057708;28;19927;-68
2023/01/04 12:04:42;;;;;;;;;;;;;;;18.94;34.60;99769.09;5075376;28;19923;-68
2023/01/04 12:07:43;;;;;;;;;;;;;;;18.70;34.98;99765.09;5057815;28;19920;-69
2023/01/04 12:10:19;;;;;;;;;;;;;;;18.46;35.62;99767.41;4994133;28;19925;-70
2023/01/04 12:12:45;;;;;;;;;;;;;;;18.27;40.39;99764.66;4961544;28;19918;-69
2023/01/04 12:15:15;;;;;;;;;;;;;;;18.21;38.76;99759.94;4963146;28;19976;-68
2023/01/04 12:17:52;;;;;;;;;;;;;;;18.14;38.32;99756.19;4974489;28;19918;-68
2023/01/04 12:20:18;;;;;;;;;;;;;;;18.13;38.05;99756.34;4974160;28;20499;-69
2023/01/04 12:22:43;;;;;;;;;;;;;;;18.10;37.79;99751.31;4958015;28;19919;-68
2023/01/04 12:25:23;;;;;;;;;;;;;;;18.02;37.80;99760.78;4974256;28;19922;-70
2023/01/04 12:27:49;;;;;;;;;;;;;;;17.97;37.81;99759.53;4974365;28;19922;-69
2023/01/04 12:30:33;;;;;;;;;;;;;;;17.89;37.74;99763.69;4974148;28;19919;-70
2023/01/04 12:32:58;;;;;;;;;;;;;;;17.86;43.17;99761.31;4974427;28;19923;-70
2023/01/04 12:35:42;;;;;;;;;;;;;;;17.78;41.96;99755.88;4974347;28;19918;-70
2023/01/04 12:38:08;;;;;;;;;;;;;;;17.77;45.71;99763.94;4973989;28;19925;-70
2023/01/04 12:40:45;;;;;;;;;;;;;;;17.73;43.65;99758.94;4969052;28;19926;-68
2023/01/04 12:43:14;;;;;;;;;;;;;;;17.69;42.66;99765.47;4978813;28;19969;-70
2023/01/04 12:45:39;;;;;;;;;;;;;;;17.65;42.02;99765.91;5033312;28;19947;-71
2023/01/04 12:51:25;;;;;;;;;;;;;;;17.41;41.29;99763.63;5032705;28;19924;-69
2023/01/04 12:53:54;;;;;;;;;;;;;;;17.30;41.18;99772.47;5031707;28;19924;-69
2023/01/04 12:56:19;;;;;;;;;;;;;;;17.20;41.25;99772.47;5015335;28;19925;-69
2023/01/04 12:59:03;;;;;;;;;;;;;;;17.11;40.92;99768.84;5012333;28;19917;-70
2023/01/04 13:01:28;;;;;;;;;;;;;;;17.05;40.96;99768.53;5012438;28;19924;-70
2023/01/04 13:03:55;;;;;;;;;;;;;;;17.02;40.84;99769.63;5012280;28;20389;-72
2023/01/04 13:06:20;;;;;;;;;;;;;;;17.00;40.94;99771.56;5012749;28;19960;-70
2023/01/04 13:08:45;;;;;;;;;;;;;;;17.00;40.75;99774.22;5011223;28;20419;-70
2023/01/04 13:11:30;;;;;;;;;;;;;;;16.97;40.89;99772.66;5018831;28;19921;-71
2023/01/04 13:13:56;;;;;;;;;;;;;;;16.96;40.75;99778.91;5031430;28;19956;-71
2023/01/04 13:16:43;;;;;;;;;;;;;;;16.93;40.82;99768.63;5014398;28;19921;-71
2023/01/04 13:19:17;;;;;;;;;;;;;;;16.87;40.92;99770.94;5031990;28;19925;-71
2023/01/04 13:21:43;;;;;;;;;;;;;;;16.80;40.99;99765.34;5040941;28;19921;-70
2023/01/04 13:24:29;;;;;;;;;;;;;;;16.77;40.84;99766.44;5052302;28;19924;-70
2023/01/04 13:26:54;;;;;;;;;;;;;;;16.74;41.06;99761.41;5052096;28;19917;-70
2023/01/04 13:29:20;;;;;;;;;;;;;;;16.74;41.09;99765.88;5034312;28;19924;-71
2023/01/04 13:31:55;;;;;;;;;;;;;;;16.73;41.01;99759.78;5052103;28;19995;-70
2023/01/04 13:34:20;;;;;;;;;;;;;;;16.72;41.05;99762.53;5050868;28;19925;-72
2023/01/04 13:36:56;;;;;;;;;;;;;;;16.70;41.27;99761.81;5049490;28;19916;-70
2023/01/04 13:39:21;;;;;;;;;;;;;;;16.69;41.22;99765.44;5033863;28;20415;-71
2023/01/04 13:41:47;;;;;;;;;;;;;;;16.65;41.35;99772.75;5038147;28;19964;-72
2023/01/04 13:44:19;;;;;;;;;;;;;;;16.59;41.40;99768.84;5013559;28;19947;-70
2023/01/04 13:46:44;;;;;;;;;;;;;;;16.52;41.52;99772.13;5014009;28;20327;-72